Terminal Aerodrome Forecast
Issued by NWS Boston, MA

Home | Current Version | Previous Version | Text Only | Print | Product List | Glossary Off
Versions: 1 2 3 4 5 6 7 8 9 10 11 12 13 14 15 16 17 18 19 20 21 22 23 24 25 26
000 FTUS41 KBOX 261120 TAFPVD TAF KPVD 261120Z 2612/2712 02007KT P6SM SCT250 FM261700 09008KT P6SM BKN060 FM261900 11008KT P6SM BKN050 FM270000 12007KT P6SM -SHRA OVC035 FM270600 12007KT P6SM VCSH OVC015 FM270900 11006KT P6SM -RA OVC010=

USA.gov is the U.S. government's official web portal to all federal, state and local government web resources and services.